createdAt,value
2017-08-17T00:00:00.519Z,5.77
2017-08-17T00:02:28.007Z,5.50
2017-08-17T00:04:55.854Z,6.30
2017-08-17T00:07:23.310Z,5.70
2017-08-17T00:09:51.066Z,5.57
2017-08-17T00:12:18.518Z,5.27
2017-08-17T00:14:45.966Z,6.00
2017-08-17T00:17:13.462Z,6.07
2017-08-17T00:19:40.914Z,5.53
2017-08-17T00:22:08.370Z,5.67
2017-08-17T00:24:36.226Z,5.63
2017-08-17T00:27:04.079Z,6.00
2017-08-17T00:29:31.542Z,5.53
2017-08-17T00:31:59.426Z,5.40
2017-08-17T00:34:26.882Z,5.03
2017-08-17T00:36:54.334Z,4.87
2017-08-17T00:39:21.786Z,5.20
2017-08-17T00:41:49.243Z,5.03
2017-08-17T00:44:16.726Z,5.80
2017-08-17T00:46:44.175Z,5.60
2017-08-17T00:49:11.834Z,11.10
2017-08-17T00:51:39.313Z,6.83
2017-08-17T00:54:06.772Z,5.80
2017-08-17T00:56:34.218Z,6.50
2017-08-17T00:59:01.695Z,6.50
2017-08-17T01:01:29.158Z,6.50
2017-08-17T01:03:56.606Z,5.93
2017-08-17T01:06:24.082Z,6.77
2017-08-17T01:08:51.533Z,6.30
2017-08-17T01:11:18.986Z,6.80
2017-08-17T01:13:46.483Z,6.23
2017-08-17T01:16:13.934Z,7.33
2017-08-17T01:18:41.382Z,6.70
2017-08-17T01:21:08.873Z,6.70
2017-08-17T01:23:36.327Z,6.93
2017-08-17T01:26:03.779Z,7.67
2017-08-17T01:28:31.254Z,7.47
2017-08-17T01:30:58.711Z,7.83
2017-08-17T01:33:26.163Z,8.20
2017-08-17T01:35:53.642Z,6.87
2017-08-17T01:38:21.096Z,7.23
2017-08-17T01:40:48.551Z,7.03
2017-08-17T01:43:16.018Z,7.67
2017-08-17T01:45:43.871Z,8.17
2017-08-17T01:48:11.327Z,7.33
2017-08-17T01:50:38.806Z,7.73
2017-08-17T01:53:06.250Z,8.40
2017-08-17T01:55:34.098Z,8.50
2017-08-17T01:58:01.587Z,8.00
2017-08-17T02:00:29.038Z,7.47
2017-08-17T02:02:56.500Z,6.97
2017-08-17T02:05:23.967Z,7.30
2017-08-17T02:07:51.428Z,8.50
2017-08-17T02:10:18.878Z,7.60
2017-08-17T02:12:46.590Z,8.53
2017-08-17T02:15:14.047Z,8.13
2017-08-17T02:17:41.508Z,8.93
2017-08-17T02:20:09.780Z,8.60
2017-08-17T02:22:37.234Z,8.90
2017-08-17T02:25:04.695Z,8.53
2017-08-17T02:27:32.178Z,7.90
2017-08-17T02:30:00.039Z,12.07
2017-08-17T02:32:27.505Z,11.30
2017-08-17T02:34:54.971Z,9.43
2017-08-17T02:37:22.883Z,9.20
2017-08-17T02:39:51.566Z,8.97
2017-08-17T02:42:19.022Z,9.07
2017-08-17T02:44:46.787Z,9.40
2017-08-17T02:47:14.242Z,9.20
2017-08-17T02:49:41.708Z,8.97
2017-08-17T02:52:09.884Z,9.07
2017-08-17T02:54:37.739Z,9.23
2017-08-17T02:57:05.595Z,9.53
2017-08-17T02:59:33.059Z,9.10
2017-08-17T03:02:00.541Z,8.50
2017-08-17T03:04:28.375Z,9.50
2017-08-17T03:06:55.828Z,8.17
2017-08-17T03:09:23.682Z,8.97
2017-08-17T03:11:51.260Z,8.93
2017-08-17T03:14:18.710Z,9.00
2017-08-17T03:16:46.186Z,9.40
2017-08-17T03:19:14.044Z,11.50
2017-08-17T03:21:41.900Z,12.60
2017-08-17T03:24:09.799Z,8.20
2017-08-17T03:26:37.266Z,9.03
2017-08-17T03:29:04.733Z,8.63
2017-08-17T03:31:32.203Z,8.43
2017-08-17T03:33:59.658Z,9.57
2017-08-17T03:36:27.122Z,8.83
2017-08-17T03:38:54.599Z,9.47
2017-08-17T03:41:22.062Z,9.30
2017-08-17T03:43:49.510Z,8.80
2017-08-17T03:46:17.570Z,9.60
2017-08-17T03:48:45.034Z,10.17
2017-08-17T03:51:12.486Z,9.70
2017-08-17T03:53:39.975Z,9.43
2017-08-17T03:56:07.433Z,9.70
2017-08-17T03:58:34.891Z,10.63
2017-08-17T04:01:02.378Z,9.90
2017-08-17T04:03:29.839Z,10.80
2017-08-17T04:05:57.295Z,9.60
2017-08-17T04:08:24.766Z,9.93
2017-08-17T04:10:52.239Z,9.50
2017-08-17T04:13:20.088Z,10.10
2017-08-17T04:15:47.562Z,8.87
2017-08-17T04:18:15.022Z,10.10
2017-08-17T04:20:42.479Z,10.00
2017-08-17T04:23:09.968Z,9.27
2017-08-17T04:25:37.427Z,10.73
2017-08-17T04:28:04.886Z,9.80
2017-08-17T04:30:32.346Z,9.90
2017-08-17T04:32:59.807Z,10.10
2017-08-17T04:35:27.291Z,9.43
2017-08-17T04:37:54.750Z,10.20
2017-08-17T04:40:22.606Z,11.27
2017-08-17T04:42:50.783Z,11.30
2017-08-17T04:45:18.234Z,10.33
2017-08-17T04:47:45.695Z,11.50
2017-08-17T04:50:13.554Z,12.47
2017-08-17T04:52:41.299Z,9.40
2017-08-17T04:55:08.755Z,12.10
2017-08-17T04:57:54.356Z,11.47
2017-08-17T05:00:21.825Z,12.50
2017-08-17T05:02:49.298Z,11.60
2017-08-17T05:05:16.817Z,12.20
2017-08-17T05:07:44.275Z,12.33
2017-08-17T05:10:11.740Z,12.70
2017-08-17T05:12:39.899Z,12.20
2017-08-17T05:15:07.510Z,12.93
2017-08-17T05:17:34.987Z,13.03
2017-08-17T05:20:02.463Z,13.20
2017-08-17T05:22:30.259Z,13.90
2017-08-17T05:24:58.107Z,12.30
2017-08-17T05:27:26.147Z,15.23
2017-08-17T05:29:53.621Z,13.53
2017-08-17T05:32:21.087Z,14.70
2017-08-17T05:34:48.553Z,13.87
2017-08-17T05:37:17.302Z,13.80
2017-08-17T05:39:44.755Z,13.90
2017-08-17T05:42:12.218Z,14.50
2017-08-17T05:44:39.702Z,15.70
2017-08-17T05:47:07.555Z,15.40
2017-08-17T05:49:35.411Z,16.60
2017-08-17T05:52:03.277Z,17.10
2017-08-17T05:54:30.785Z,17.57
2017-08-17T05:56:58.248Z,16.17
2017-08-17T05:59:25.739Z,16.77
2017-08-17T06:01:53.266Z,16.63
2017-08-17T06:04:20.718Z,18.30
2017-08-17T06:06:48.175Z,17.70
2017-08-17T06:09:15.655Z,17.70
2017-08-17T06:11:43.134Z,19.83
2017-08-17T06:14:10.987Z,17.63
2017-08-17T06:16:38.483Z,20.37
2017-08-17T06:19:06.077Z,18.90
2017-08-17T06:21:33.530Z,18.20
2017-08-17T06:24:00.994Z,19.40
2017-08-17T06:26:28.464Z,19.67
2017-08-17T06:28:56.636Z,19.30
2017-08-17T06:31:24.106Z,19.90
2017-08-17T06:33:51.963Z,20.80
2017-08-17T06:36:19.846Z,21.17
2017-08-17T06:38:47.319Z,20.20
2017-08-17T06:41:14.783Z,21.40
2017-08-17T06:43:42.246Z,21.27
2017-08-17T06:46:09.702Z,21.50
2017-08-17T06:48:37.307Z,21.73
2017-08-17T06:51:04.771Z,23.40
2017-08-17T06:53:33.519Z,21.20
2017-08-17T06:56:01.001Z,22.80
2017-08-17T06:58:28.460Z,22.60
2017-08-17T07:00:56.324Z,22.73
2017-08-17T07:03:24.191Z,23.73
2017-08-17T07:05:52.067Z,21.50
2017-08-17T07:08:19.524Z,22.07
2017-08-17T07:10:46.995Z,22.10
2017-08-17T07:13:14.511Z,22.10
2017-08-17T07:15:41.963Z,21.57
2017-08-17T07:18:09.423Z,23.23
2017-08-17T07:20:36.911Z,22.77
2017-08-17T07:23:04.375Z,21.57
2017-08-17T07:25:31.845Z,20.60
2017-08-17T07:27:59.306Z,20.80
2017-08-17T07:30:26.772Z,20.00
2017-08-17T07:32:54.259Z,20.17
2017-08-17T07:35:21.722Z,21.23
2017-08-17T07:37:49.186Z,20.40
2017-08-17T07:40:16.764Z,20.37
2017-08-17T07:42:44.239Z,20.67
2017-08-17T07:45:11.703Z,18.10
2017-08-17T07:47:39.167Z,21.10
2017-08-17T07:50:06.640Z,19.50
2017-08-17T07:52:34.261Z,20.27
2017-08-17T07:55:01.715Z,18.53
2017-08-17T07:57:29.180Z,19.57
2017-08-17T07:59:56.671Z,18.10
2017-08-17T08:02:24.133Z,19.07
2017-08-17T08:04:51.598Z,17.40
2017-08-17T08:07:19.072Z,17.37
2017-08-17T08:09:46.652Z,17.27
2017-08-17T08:12:14.107Z,16.97
2017-08-17T08:14:41.603Z,17.60
2017-08-17T08:17:09.063Z,15.93
2017-08-17T08:19:36.519Z,16.93
2017-08-17T08:22:04.015Z,17.13
2017-08-17T08:24:31.475Z,18.60
2017-08-17T08:26:58.935Z,16.80
2017-08-17T08:29:26.747Z,16.47
2017-08-17T08:31:54.203Z,16.90
2017-08-17T08:34:21.658Z,17.20
2017-08-17T08:36:49.291Z,15.03
2017-08-17T08:39:16.770Z,16.23
2017-08-17T08:41:44.227Z,15.60
2017-08-17T08:44:11.802Z,16.30
2017-08-17T08:46:39.662Z,15.57
2017-08-17T08:49:07.113Z,16.07
2017-08-17T08:51:34.633Z,17.10
2017-08-17T08:54:02.096Z,16.10
2017-08-17T08:56:29.554Z,16.60
2017-08-17T08:58:57.107Z,17.50
2017-08-17T09:01:24.575Z,16.90
2017-08-17T09:03:52.071Z,17.07
2017-08-17T09:06:20.119Z,15.60
2017-08-17T09:08:47.983Z,14.90
2017-08-17T09:11:15.448Z,15.73
2017-08-17T09:13:43.499Z,16.30
2017-08-17T09:16:10.955Z,16.50
2017-08-17T09:18:38.417Z,15.50
2017-08-17T09:21:05.923Z,16.43
2017-08-17T09:23:33.385Z,15.87
2017-08-17T09:26:00.852Z,16.17
2017-08-17T09:28:28.501Z,14.93
2017-08-17T09:30:55.960Z,14.90
2017-08-17T09:33:23.425Z,14.67
2017-08-17T09:35:50.907Z,14.63
2017-08-17T09:38:19.047Z,13.07
2017-08-17T09:40:46.508Z,13.20
2017-08-17T09:43:14.290Z,14.50
2017-08-17T09:45:41.747Z,15.60
2017-08-17T09:48:09.213Z,15.80
2017-08-17T09:50:37.378Z,14.77
2017-08-17T09:53:04.847Z,14.50
2017-08-17T09:55:32.705Z,15.00
2017-08-17T09:58:00.457Z,15.47
2017-08-17T10:00:27.915Z,14.10
2017-08-17T10:02:55.785Z,13.80
2017-08-17T10:05:23.270Z,13.23
2017-08-17T10:07:50.739Z,14.07
2017-08-17T10:10:18.209Z,13.97
2017-08-17T10:12:45.905Z,13.53
2017-08-17T10:15:13.369Z,12.60
2017-08-17T10:17:40.842Z,12.60
2017-08-17T10:20:08.724Z,12.10
2017-08-17T10:22:36.178Z,11.40
2017-08-17T10:25:03.647Z,11.87
2017-08-17T10:27:31.132Z,10.50
2017-08-17T10:29:58.663Z,11.07
2017-08-17T10:32:26.126Z,12.07
2017-08-17T10:34:53.820Z,11.03
2017-08-17T10:37:21.684Z,11.20
2017-08-17T10:39:49.142Z,10.80
2017-08-17T10:42:16.723Z,11.10
2017-08-17T10:44:44.182Z,11.97
2017-08-17T10:47:11.664Z,9.33
2017-08-17T10:49:39.471Z,10.13
2017-08-17T10:52:06.952Z,11.37
2017-08-17T10:54:34.419Z,10.90
2017-08-17T10:57:01.880Z,15.67
2017-08-17T10:59:29.351Z,11.00
2017-08-17T11:01:56.940Z,10.60
2017-08-17T11:04:24.402Z,10.93
2017-08-17T11:06:51.868Z,9.87
2017-08-17T11:09:19.619Z,10.30
2017-08-17T11:11:47.086Z,10.20
2017-08-17T11:14:14.540Z,9.83
2017-08-17T11:16:42.430Z,9.93
2017-08-17T11:19:09.890Z,10.17
2017-08-17T11:21:37.358Z,9.13
2017-08-17T11:24:04.842Z,9.90
2017-08-17T11:26:32.302Z,9.80
2017-08-17T11:28:59.754Z,9.13
2017-08-17T11:31:27.559Z,9.40
2017-08-17T11:33:55.408Z,8.97
2017-08-17T11:36:23.263Z,8.40
2017-08-17T11:38:50.748Z,8.70
2017-08-17T11:41:18.205Z,8.77
2017-08-17T11:43:45.663Z,8.27
2017-08-17T11:46:13.166Z,9.57
2017-08-17T11:48:40.139Z,8.00
2017-08-17T11:51:07.095Z,8.60
2017-08-17T11:53:34.835Z,8.97
2017-08-17T11:56:02.298Z,7.77
2017-08-17T11:58:29.755Z,8.63
2017-08-17T12:00:57.507Z,7.93
2017-08-17T12:03:24.970Z,8.30
2017-08-17T12:05:52.418Z,8.00
2017-08-17T12:08:19.906Z,8.40
2017-08-17T12:10:47.374Z,7.97
2017-08-17T12:13:14.830Z,8.03
2017-08-17T12:15:42.651Z,7.70
2017-08-17T12:18:10.102Z,8.37
2017-08-17T12:20:37.562Z,7.90
2017-08-17T12:23:05.024Z,8.03
2017-08-17T12:25:32.880Z,7.90
2017-08-17T12:28:00.673Z,8.03
2017-08-17T12:30:28.122Z,7.53
2017-08-17T12:32:55.584Z,7.97
2017-08-17T12:35:23.339Z,8.00
2017-08-17T12:37:50.791Z,6.83
2017-08-17T12:40:18.644Z,7.80
2017-08-17T12:45:20.517Z,7.40
2017-08-17T12:47:48.252Z,7.40
2017-08-17T12:50:15.706Z,7.40
2017-08-17T12:52:43.163Z,7.20
2017-08-17T12:55:10.614Z,7.50
2017-08-17T12:57:38.075Z,8.17
2017-08-17T13:00:05.539Z,8.13
2017-08-17T13:02:33.002Z,8.03
2017-08-17T13:05:01.335Z,8.00
2017-08-17T13:07:28.795Z,7.43
2017-08-17T13:09:56.251Z,8.70
2017-08-17T13:12:23.722Z,9.10
2017-08-17T13:14:51.180Z,8.30
2017-08-17T13:17:18.644Z,8.20
2017-08-17T13:19:46.517Z,8.30
2017-08-17T13:22:13.967Z,8.03
2017-08-17T13:24:41.431Z,7.73
2017-08-17T13:27:08.899Z,7.50
2017-08-17T13:29:36.747Z,7.90
2017-08-17T13:32:04.612Z,8.30
2017-08-17T13:34:32.088Z,7.40
2017-08-17T13:36:59.935Z,7.17
2017-08-17T13:39:27.411Z,7.63
2017-08-17T13:41:55.311Z,6.60
2017-08-17T13:44:22.767Z,6.80
2017-08-17T13:46:50.223Z,7.20
2017-08-17T13:49:17.698Z,7.00
2017-08-17T13:51:45.164Z,7.70
2017-08-17T13:54:12.611Z,7.03
2017-08-17T13:56:40.295Z,6.80
2017-08-17T13:59:08.153Z,7.37
2017-08-17T14:01:35.609Z,7.87
2017-08-17T14:04:03.094Z,6.30
2017-08-17T14:06:30.543Z,6.70
2017-08-17T14:08:58.394Z,7.10
2017-08-17T14:11:26.276Z,6.73
2017-08-17T14:13:54.123Z,6.90
2017-08-17T14:16:21.583Z,7.07
2017-08-17T14:18:49.447Z,7.57
2017-08-17T14:21:17.302Z,8.37
2017-08-17T14:23:44.755Z,7.40
2017-08-17T14:26:12.342Z,7.80
2017-08-17T14:28:39.797Z,8.03
2017-08-17T14:31:07.263Z,7.83
2017-08-17T14:33:34.867Z,8.07
2017-08-17T14:36:02.319Z,8.60
2017-08-17T14:38:29.770Z,8.63
2017-08-17T14:40:57.450Z,9.00
2017-08-17T14:43:24.903Z,8.83
2017-08-17T14:45:52.366Z,9.30
2017-08-17T14:48:19.846Z,8.40
2017-08-17T14:50:47.299Z,8.10
2017-08-17T14:53:15.143Z,8.90
2017-08-17T14:55:42.711Z,8.93
2017-08-17T14:58:10.562Z,9.63
2017-08-17T15:00:38.016Z,7.83
2017-08-17T15:03:05.671Z,8.27
2017-08-17T15:05:33.147Z,9.37
2017-08-17T15:08:00.604Z,8.77
2017-08-17T15:10:28.478Z,8.47
2017-08-17T15:12:55.926Z,8.53
2017-08-17T15:15:23.780Z,8.37
2017-08-17T15:17:51.647Z,8.60
2017-08-17T15:20:19.118Z,9.50
2017-08-17T15:22:46.579Z,8.93
2017-08-17T15:25:14.051Z,8.70
2017-08-17T15:27:41.513Z,9.37
2017-08-17T15:30:08.971Z,10.27
2017-08-17T15:32:36.671Z,9.80
2017-08-17T15:35:04.137Z,10.13
2017-08-17T15:37:31.587Z,9.90
2017-08-17T15:39:59.447Z,9.30
2017-08-17T15:42:26.938Z,10.30
2017-08-17T15:44:54.663Z,10.70
2017-08-17T15:47:22.123Z,12.03
2017-08-17T15:49:50.028Z,13.93
2017-08-17T15:52:17.655Z,12.70
2017-08-17T15:54:45.111Z,13.20
2017-08-17T15:57:12.575Z,12.57
2017-08-17T15:59:40.618Z,14.50
2017-08-17T16:02:08.084Z,13.00
2017-08-17T16:04:35.540Z,14.27
2017-08-17T16:07:03.016Z,14.63
2017-08-17T16:09:30.875Z,16.73
2017-08-17T16:11:58.344Z,14.80
2017-08-17T16:14:25.839Z,16.43
2017-08-17T16:16:53.304Z,15.33
2017-08-17T16:19:20.758Z,16.43
2017-08-17T16:21:48.534Z,17.70
2017-08-17T16:24:15.999Z,17.30
2017-08-17T16:26:43.855Z,17.27
2017-08-17T16:29:11.620Z,17.10
2017-08-17T16:31:39.079Z,17.57
2017-08-17T16:34:06.539Z,17.20
2017-08-17T16:36:34.394Z,18.07
2017-08-17T16:39:01.855Z,18.23
2017-08-17T16:41:29.353Z,19.63
2017-08-17T16:43:56.812Z,18.73
2017-08-17T16:46:24.373Z,19.40
2017-08-17T16:48:51.929Z,17.10
2017-08-17T16:51:19.379Z,19.80
2017-08-17T16:53:47.083Z,19.40
2017-08-17T16:56:14.538Z,20.70
2017-08-17T16:58:41.997Z,18.80
2017-08-17T17:01:09.479Z,18.70
2017-08-17T17:03:36.942Z,21.70
2017-08-17T17:06:04.399Z,19.83
2017-08-17T17:08:31.882Z,21.70
2017-08-17T17:10:59.346Z,19.10
2017-08-17T17:13:26.812Z,19.50
2017-08-17T17:15:54.495Z,19.87
2017-08-17T17:18:21.950Z,20.40
2017-08-17T17:20:49.411Z,19.93
2017-08-17T17:23:17.015Z,20.30
2017-08-17T17:25:44.483Z,22.43
2017-08-17T17:28:11.946Z,21.20
2017-08-17T17:30:39.426Z,22.60
2017-08-17T17:33:06.892Z,21.00
2017-08-17T17:35:34.359Z,24.00
2017-08-17T17:38:02.102Z,21.83
2017-08-17T17:40:29.566Z,23.10
2017-08-17T17:42:57.429Z,22.50
2017-08-17T17:45:24.902Z,21.93
2017-08-17T17:47:52.363Z,23.10
2017-08-17T17:50:19.827Z,24.00
2017-08-17T17:52:47.313Z,22.47
2017-08-17T17:55:14.766Z,25.50
2017-08-17T17:57:42.228Z,25.30
2017-08-17T18:00:09.916Z,26.10
2017-08-17T18:02:37.376Z,25.40
2017-08-17T18:05:04.835Z,27.00
2017-08-17T18:07:32.698Z,29.20
2017-08-17T18:10:00.550Z,27.80
2017-08-17T18:12:28.042Z,29.03
2017-08-17T18:14:55.502Z,25.33
2017-08-17T18:17:22.980Z,28.60
2017-08-17T18:19:50.438Z,28.27
2017-08-17T18:22:17.904Z,29.37
2017-08-17T18:24:45.443Z,28.80
2017-08-17T18:27:12.943Z,30.10
2017-08-17T18:29:40.404Z,29.33
2017-08-17T18:32:07.858Z,30.50
2017-08-17T18:34:35.354Z,30.70
2017-08-17T18:37:02.819Z,30.00
2017-08-17T18:39:30.281Z,29.67
2017-08-17T18:41:57.779Z,29.83
2017-08-17T18:44:25.246Z,27.57
2017-08-17T18:46:52.741Z,29.20
2017-08-17T18:49:20.233Z,29.33
2017-08-17T18:51:47.693Z,31.97
2017-08-17T18:54:15.178Z,30.00
2017-08-17T18:56:42.646Z,28.70
2017-08-17T18:59:10.118Z,32.57
2017-08-17T19:01:37.583Z,31.63
2017-08-17T19:04:05.284Z,29.93
2017-08-17T19:06:33.204Z,31.90
2017-08-17T19:09:00.662Z,33.20
2017-08-17T19:11:28.256Z,30.70
2017-08-17T19:13:55.728Z,35.07
2017-08-17T19:16:23.610Z,33.17
2017-08-17T19:18:51.139Z,33.20
2017-08-17T19:21:18.642Z,31.37
2017-08-17T19:23:46.133Z,34.83
2017-08-17T19:26:13.828Z,32.60
2017-08-17T19:28:41.690Z,31.50
2017-08-17T19:31:09.550Z,33.30
2017-08-17T19:33:37.036Z,33.97
2017-08-17T19:36:04.500Z,34.10
2017-08-17T19:38:32.083Z,34.50
2017-08-17T19:40:59.555Z,34.17
2017-08-17T19:43:27.031Z,35.07
2017-08-17T19:45:54.598Z,34.57
2017-08-17T19:48:22.070Z,34.73
2017-08-17T19:50:49.526Z,34.50
2017-08-17T19:53:17.015Z,36.03
2017-08-17T19:55:44.475Z,35.80
2017-08-17T19:58:11.940Z,38.67
2017-08-17T20:00:39.450Z,35.20
2017-08-17T20:03:06.914Z,34.63
2017-08-17T20:05:34.407Z,33.97
2017-08-17T20:08:01.909Z,33.77
2017-08-17T20:10:29.363Z,35.80
2017-08-17T20:12:56.824Z,35.77
2017-08-17T20:15:25.383Z,37.77
2017-08-17T20:17:53.242Z,35.07
2017-08-17T20:20:20.704Z,37.20
2017-08-17T20:22:48.591Z,41.53
2017-08-17T20:25:16.064Z,37.53
2017-08-17T20:27:43.528Z,38.07
2017-08-17T20:30:11.020Z,36.93
2017-08-17T20:32:38.504Z,38.00
2017-08-17T20:35:05.967Z,39.87
2017-08-17T20:37:33.426Z,40.87
2017-08-17T20:40:01.247Z,37.43
2017-08-17T20:42:28.708Z,37.80
2017-08-17T20:44:56.167Z,38.90
2017-08-17T20:47:23.903Z,39.47
2017-08-17T20:49:51.369Z,41.20
2017-08-17T20:52:18.843Z,38.47
2017-08-17T20:54:46.422Z,38.80
2017-08-17T20:57:13.886Z,40.07
2017-08-17T20:59:41.366Z,40.47
2017-08-17T21:02:08.858Z,39.17
2017-08-17T21:04:36.323Z,40.90
2017-08-17T21:07:04.187Z,40.13
2017-08-17T21:09:31.666Z,39.10
2017-08-17T21:11:59.130Z,42.10
2017-08-17T21:14:26.596Z,40.83
2017-08-17T21:16:54.083Z,42.20
2017-08-17T21:19:21.539Z,39.00
2017-08-17T21:21:49.003Z,41.80
2017-08-17T21:24:16.738Z,41.97
2017-08-17T21:26:44.264Z,42.63
2017-08-17T21:29:11.710Z,43.50
2017-08-17T21:31:39.175Z,43.90
2017-08-17T21:34:06.942Z,44.30
2017-08-17T21:36:34.408Z,45.00
2017-08-17T21:39:01.871Z,45.50
2017-08-17T21:41:29.624Z,47.30
2017-08-17T21:43:57.095Z,47.43
2017-08-17T21:46:24.556Z,44.07
2017-08-17T21:48:52.061Z,45.17
2017-08-17T21:51:19.911Z,47.10
2017-08-17T21:53:47.372Z,45.10
2017-08-17T21:56:15.246Z,44.60
2017-08-17T21:58:43.098Z,46.10
2017-08-17T22:01:10.956Z,46.40
2017-08-17T22:03:38.444Z,46.13
2017-08-17T22:06:05.903Z,47.90
2017-08-17T22:08:33.363Z,47.37
2017-08-17T22:11:00.839Z,49.77
2017-08-17T22:13:28.299Z,44.57
2017-08-17T22:15:55.762Z,48.00
2017-08-17T22:18:23.226Z,51.40
2017-08-17T22:20:50.711Z,50.13
2017-08-17T22:23:18.563Z,46.63
2017-08-17T22:25:46.027Z,47.47
2017-08-17T22:28:13.906Z,45.87
2017-08-17T22:30:41.358Z,46.00
2017-08-17T22:33:08.823Z,45.63
2017-08-17T22:35:36.659Z,47.77
2017-08-17T22:38:04.522Z,47.77
2017-08-17T22:40:31.978Z,46.13
2017-08-17T22:42:59.550Z,45.77
2017-08-17T22:45:27.402Z,48.67
2017-08-17T22:47:54.863Z,44.77
2017-08-17T22:50:22.735Z,43.90
2017-08-17T22:52:50.594Z,44.33
2017-08-17T22:55:18.455Z,47.30
2017-08-17T22:57:46.355Z,43.93
2017-08-17T23:00:13.806Z,46.27
2017-08-17T23:02:41.263Z,44.87
2017-08-17T23:05:08.729Z,42.60
2017-08-17T23:07:36.204Z,43.70
2017-08-17T23:10:03.899Z,44.60
2017-08-17T23:12:31.362Z,44.23
2017-08-17T23:14:59.218Z,43.00
2017-08-17T23:17:26.908Z,41.90
2017-08-17T23:19:54.367Z,43.17
2017-08-17T23:22:21.827Z,39.50
2017-08-17T23:24:49.311Z,43.43
2017-08-17T23:27:16.776Z,42.50
2017-08-17T23:29:44.821Z,43.37
2017-08-17T23:32:12.528Z,42.10
2017-08-17T23:34:39.997Z,40.57
2017-08-17T23:37:07.847Z,40.47
2017-08-17T23:39:35.323Z,40.40
2017-08-17T23:42:02.783Z,43.30
2017-08-17T23:44:30.639Z,42.23
2017-08-17T23:46:58.654Z,39.70
2017-08-17T23:49:26.106Z,40.33
2017-08-17T23:51:53.574Z,39.50
2017-08-17T23:54:21.055Z,37.93
2017-08-17T23:56:48.510Z,36.97
2017-08-17T23:59:15.971Z,39.27
